СИЛА РОССИИ. Форум сайта «Отвага» (www.otvaga2004.ru)

Информация о пользователе

Привет, Гость! Войдите или зарегистрируйтесь.


Вы здесь » СИЛА РОССИИ. Форум сайта «Отвага» (www.otvaga2004.ru) » Вооружение сухопутных войск


Вооружение сухопутных войск

Тем 31 страница 60 из 192

Тема Ответов Просмотров Последнее сообщение
31 Ручные гранаты  Lans  [ 1 2 3  9 ]
246 32240 2020-01-06 13:52:36  leonard61
149 26146 2019-12-29 21:46:34  Astax
33 Средства ПВО - 8  kinetic  [ 1 2 3  34 ]
999 105306 2019-12-18 08:23:49  mr_tank
34 Фортификация  Lans  [ 1 2 3  6 ]
152 20208 2019-10-28 00:24:22  DAK
999 89745 2019-10-23 17:29:42  __Memento_mori__
999 11398 2019-10-06 20:55:16  sasa
83 29888 2019-10-03 16:14:03  tankoff
17 3076 2019-09-29 10:46:07  Хорт мохнатый
39 Околовоенные новости  Zaklepkin  [ 1 2 3  11 ]
304 30602 2019-09-26 10:46:32  humanitarius
999 10055 2019-09-18 21:47:26  sasa
41 Пистолеты-3  KORVIN  [ 1 2 3  34 ]
999 60574 2019-09-13 01:22:27  KORVIN
1 960 2019-09-10 17:39:56  scout
43 Какими должны быть ВДВ? - 4  Сергей-1982  [ 1 2 3  34 ]
999 9847 2019-09-04 15:47:16  8569
0 499 2019-08-25 11:15:20  sasa
999 25679 2019-08-25 10:29:39  finnbogi
46 Минометы  Гайковерт  [ 1 2 3  34 ]
999 124190 2019-07-26 16:22:52  Арсений80
47 Средства ПРО  10V  [ 1 2 3 ]
75 22485 2019-07-25 05:50:37  ДимитриUS
48 Огнемёты  10V  [ 1 2 3  9 ]
255 33020 2019-07-12 21:47:21  DAK
49 ВС Белоруссии  Сергей-1982
0 696 2019-07-05 09:55:15  Сергей-1982
50 Инженерные войска.  Виталий Иванович (PQ)  [ 1 2 3  18 ]
533 63474 2019-07-02 07:49:51  NoName
63 14865 2019-06-17 20:04:17  KORVIN
52 Народно-освободительная армия Китая 2  Виталий Иванович (PQ)  [ 1 2 3  34 ]
999 92549 2019-06-17 19:39:53  Абалкин
1 733 2019-06-08 04:21:05  GRU
54 Противотанковые средства 6  Атабек  [ 1 2 3  34 ]
999 68323 2019-06-05 17:01:35  Шестопер
55 Экспорт оружия.  Сергей-1982
0 435 2019-06-03 14:57:14  Сергей-1982
488 12992 2019-05-13 19:22:07  Абалкин
61 7011 2019-05-11 23:10:37  vasya83
34 6286 2019-04-28 22:26:31  Medved_A
999 68354 2019-04-05 11:59:50  Арсений80
60 Химики  Lans
17 2165 2019-03-25 09:45:30  scout

Вы здесь » СИЛА РОССИИ. Форум сайта «Отвага» (www.otvaga2004.ru) » Вооружение сухопутных войск